sensor_id;sensor_type;location;lat;lon;timestamp;P1;durP1;ratioP1;P2;durP2;ratioP2
64832;SDS011;51290;45.060;38.948;2024-01-06T00:02:13;3.58;;;2.53;;
64832;SDS011;51290;45.060;38.948;2024-01-06T00:04:39;3.42;;;2.67;;
64832;SDS011;51290;45.060;38.948;2024-01-06T00:07:05;5.10;;;2.55;;
64832;SDS011;51290;45.060;38.948;2024-01-06T00:09:30;3.97;;;2.90;;
64832;SDS011;51290;45.060;38.948;2024-01-06T00:11:56;4.10;;;2.55;;
64832;SDS011;51290;45.060;38.948;2024-01-06T00:14:22;4.03;;;3.00;;
64832;SDS011;51290;45.060;38.948;2024-01-06T00:16:48;4.05;;;2.47;;
64832;SDS011;51290;45.060;38.948;2024-01-06T00:19:14;4.93;;;2.55;;
64832;SDS011;51290;45.060;38.948;2024-01-06T00:21:42;3.13;;;2.58;;
64832;SDS011;51290;45.060;38.948;2024-01-06T00:24:09;3.97;;;2.83;;
64832;SDS011;51290;45.060;38.948;2024-01-06T00:26:35;4.15;;;2.85;;
64832;SDS011;51290;45.060;38.948;2024-01-06T00:29:01;5.22;;;3.22;;
64832;SDS011;51290;45.060;38.948;2024-01-06T00:31:27;3.90;;;2.55;;
64832;SDS011;51290;45.060;38.948;2024-01-06T00:33:53;4.47;;;3.00;;
64832;SDS011;51290;45.060;38.948;2024-01-06T00:36:19;5.90;;;3.65;;
64832;SDS011;51290;45.060;38.948;2024-01-06T00:38:45;12.20;;;3.33;;
64832;SDS011;51290;45.060;38.948;2024-01-06T00:41:11;3.83;;;2.90;;
64832;SDS011;51290;45.060;38.948;2024-01-06T00:43:37;3.75;;;3.03;;
64832;SDS011;51290;45.060;38.948;2024-01-06T00:46:03;5.93;;;3.30;;
64832;SDS011;51290;45.060;38.948;2024-01-06T00:48:29;4.25;;;3.25;;
64832;SDS011;51290;45.060;38.948;2024-01-06T00:50:54;6.80;;;4.18;;
64832;SDS011;51290;45.060;38.948;2024-01-06T00:53:21;6.57;;;3.65;;
64832;SDS011;51290;45.060;38.948;2024-01-06T00:55:47;6.47;;;3.42;;
64832;SDS011;51290;45.060;38.948;2024-01-06T00:58:13;5.88;;;3.70;;
64832;SDS011;51290;45.060;38.948;2024-01-06T01:00:39;4.68;;;3.42;;
64832;SDS011;51290;45.060;38.948;2024-01-06T01:03:05;8.23;;;3.03;;
64832;SDS011;51290;45.060;38.948;2024-01-06T01:05:31;6.57;;;3.90;;
64832;SDS011;51290;45.060;38.948;2024-01-06T01:07:57;5.28;;;3.50;;
64832;SDS011;51290;45.060;38.948;2024-01-06T01:10:23;6.70;;;3.72;;
64832;SDS011;51290;45.060;38.948;2024-01-06T01:12:48;6.32;;;3.28;;
64832;SDS011;51290;45.060;38.948;2024-01-06T01:15:14;5.65;;;3.53;;
64832;SDS011;51290;45.060;38.948;2024-01-06T01:17:40;4.95;;;3.50;;
64832;SDS011;51290;45.060;38.948;2024-01-06T01:20:06;5.03;;;3.58;;
64832;SDS011;51290;45.060;38.948;2024-01-06T01:22:33;5.97;;;3.78;;
64832;SDS011;51290;45.060;38.948;2024-01-06T01:24:59;3.55;;;3.13;;
64832;SDS011;51290;45.060;38.948;2024-01-06T01:27:30;6.18;;;3.70;;
64832;SDS011;51290;45.060;38.948;2024-01-06T01:29:56;6.53;;;3.65;;
64832;SDS011;51290;45.060;38.948;2024-01-06T01:32:22;5.45;;;3.67;;
64832;SDS011;51290;45.060;38.948;2024-01-06T01:34:48;4.43;;;3.58;;
64832;SDS011;51290;45.060;38.948;2024-01-06T01:37:15;6.15;;;4.05;;
64832;SDS011;51290;45.060;38.948;2024-01-06T01:39:41;5.75;;;3.55;;
64832;SDS011;51290;45.060;38.948;2024-01-06T01:42:07;4.25;;;3.40;;
64832;SDS011;51290;45.060;38.948;2024-01-06T01:44:33;9.20;;;4.35;;
64832;SDS011;51290;45.060;38.948;2024-01-06T01:46:59;7.97;;;4.18;;
64832;SDS011;51290;45.060;38.948;2024-01-06T01:49:25;6.47;;;4.20;;
64832;SDS011;51290;45.060;38.948;2024-01-06T01:51:51;5.97;;;4.07;;
64832;SDS011;51290;45.060;38.948;2024-01-06T01:54:17;6.00;;;4.28;;
64832;SDS011;51290;45.060;38.948;2024-01-06T01:56:44;5.35;;;4.05;;
64832;SDS011;51290;45.060;38.948;2024-01-06T01:59:13;8.13;;;4.72;;
64832;SDS011;51290;45.060;38.948;2024-01-06T02:01:43;8.25;;;4.72;;
64832;SDS011;51290;45.060;38.948;2024-01-06T02:04:09;7.80;;;4.68;;
64832;SDS011;51290;45.060;38.948;2024-01-06T02:06:35;6.05;;;4.18;;
64832;SDS011;51290;45.060;38.948;2024-01-06T02:09:01;7.72;;;4.55;;
64832;SDS011;51290;45.060;38.948;2024-01-06T02:11:27;6.38;;;4.25;;
64832;SDS011;51290;45.060;38.948;2024-01-06T02:13:53;6.65;;;4.60;;
64832;SDS011;51290;45.060;38.948;2024-01-06T02:16:19;5.03;;;3.92;;
64832;SDS011;51290;45.060;38.948;2024-01-06T02:18:45;11.18;;;5.78;;
64832;SDS011;51290;45.060;38.948;2024-01-06T02:21:11;6.38;;;4.72;;
64832;SDS011;51290;45.060;38.948;2024-01-06T02:23:38;7.53;;;4.82;;
64832;SDS011;51290;45.060;38.948;2024-01-06T02:26:04;7.75;;;4.95;;
64832;SDS011;51290;45.060;38.948;2024-01-06T02:28:30;7.68;;;5.47;;
64832;SDS011;51290;45.060;38.948;2024-01-06T02:30:56;9.88;;;5.20;;
64832;SDS011;51290;45.060;38.948;2024-01-06T02:33:22;6.65;;;5.00;;
64832;SDS011;51290;45.060;38.948;2024-01-06T02:35:49;6.50;;;4.57;;
64832;SDS011;51290;45.060;38.948;2024-01-06T02:38:16;7.50;;;5.15;;
64832;SDS011;51290;45.060;38.948;2024-01-06T02:40:42;8.32;;;4.70;;
64832;SDS011;51290;45.060;38.948;2024-01-06T02:43:08;8.38;;;5.60;;
64832;SDS011;51290;45.060;38.948;2024-01-06T02:45:35;7.95;;;5.38;;
64832;SDS011;51290;45.060;38.948;2024-01-06T02:48:00;6.15;;;4.55;;
64832;SDS011;51290;45.060;38.948;2024-01-06T02:50:26;7.63;;;5.07;;
64832;SDS011;51290;45.060;38.948;2024-01-06T02:52:52;6.82;;;4.55;;
64832;SDS011;51290;45.060;38.948;2024-01-06T02:55:18;6.43;;;4.38;;
64832;SDS011;51290;45.060;38.948;2024-01-06T02:57:44;6.97;;;4.80;;
64832;SDS011;51290;45.060;38.948;2024-01-06T03:00:10;7.30;;;4.78;;
64832;SDS011;51290;45.060;38.948;2024-01-06T03:02:38;15.02;;;5.40;;
64832;SDS011;51290;45.060;38.948;2024-01-06T03:05:07;7.00;;;4.88;;
64832;SDS011;51290;45.060;38.948;2024-01-06T03:07:34;8.23;;;5.22;;
64832;SDS011;51290;45.060;38.948;2024-01-06T03:10:00;6.47;;;4.95;;
64832;SDS011;51290;45.060;38.948;2024-01-06T03:12:26;7.00;;;5.15;;
64832;SDS011;51290;45.060;38.948;2024-01-06T03:14:52;9.35;;;5.65;;
64832;SDS011;51290;45.060;38.948;2024-01-06T03:17:18;7.50;;;5.43;;
64832;SDS011;51290;45.060;38.948;2024-01-06T03:19:44;7.47;;;5.35;;
64832;SDS011;51290;45.060;38.948;2024-01-06T03:22:10;8.13;;;5.50;;
64832;SDS011;51290;45.060;38.948;2024-01-06T03:24:36;6.97;;;4.78;;
64832;SDS011;51290;45.060;38.948;2024-01-06T03:27:02;10.38;;;5.75;;
64832;SDS011;51290;45.060;38.948;2024-01-06T03:29:28;8.75;;;5.32;;
64832;SDS011;51290;45.060;38.948;2024-01-06T03:31:54;7.90;;;4.90;;
64832;SDS011;51290;45.060;38.948;2024-01-06T03:34:20;7.32;;;5.30;;
64832;SDS011;51290;45.060;38.948;2024-01-06T03:36:46;8.93;;;5.82;;
64832;SDS011;51290;45.060;38.948;2024-01-06T03:39:12;8.88;;;5.95;;
64832;SDS011;51290;45.060;38.948;2024-01-06T03:41:39;8.38;;;5.60;;
64832;SDS011;51290;45.060;38.948;2024-01-06T03:44:05;7.18;;;5.35;;
64832;SDS011;51290;45.060;38.948;2024-01-06T03:46:32;7.25;;;5.15;;
64832;SDS011;51290;45.060;38.948;2024-01-06T03:48:58;8.05;;;5.28;;
64832;SDS011;51290;45.060;38.948;2024-01-06T03:51:24;6.40;;;4.68;;
64832;SDS011;51290;45.060;38.948;2024-01-06T03:53:50;8.38;;;5.82;;
64832;SDS011;51290;45.060;38.948;2024-01-06T03:56:16;6.47;;;4.95;;
64832;SDS011;51290;45.060;38.948;2024-01-06T03:58:43;7.40;;;5.00;;
64832;SDS011;51290;45.060;38.948;2024-01-06T04:01:09;6.75;;;4.80;;
64832;SDS011;51290;45.060;38.948;2024-01-06T04:03:35;9.20;;;5.22;;
64832;SDS011;51290;45.060;38.948;2024-01-06T04:06:01;8.82;;;5.30;;
64832;SDS011;51290;45.060;38.948;2024-01-06T04:08:27;7.95;;;5.90;;
64832;SDS011;51290;45.060;38.948;2024-01-06T04:10:53;8.88;;;5.22;;
64832;SDS011;51290;45.060;38.948;2024-01-06T04:13:19;11.40;;;6.07;;
64832;SDS011;51290;45.060;38.948;2024-01-06T04:15:45;7.90;;;5.65;;
64832;SDS011;51290;45.060;38.948;2024-01-06T04:18:11;8.05;;;5.47;;
64832;SDS011;51290;45.060;38.948;2024-01-06T04:20:37;8.75;;;5.38;;
64832;SDS011;51290;45.060;38.948;2024-01-06T04:23:03;7.72;;;5.30;;
64832;SDS011;51290;45.060;38.948;2024-01-06T04:25:29;8.55;;;5.75;;
64832;SDS011;51290;45.060;38.948;2024-01-06T04:27:55;5.97;;;4.47;;
64832;SDS011;51290;45.060;38.948;2024-01-06T04:30:21;11.00;;;6.85;;
64832;SDS011;51290;45.060;38.948;2024-01-06T04:32:47;10.15;;;6.18;;
64832;SDS011;51290;45.060;38.948;2024-01-06T04:35:16;10.35;;;6.97;;
64832;SDS011;51290;45.060;38.948;2024-01-06T04:37:42;7.00;;;5.47;;
64832;SDS011;51290;45.060;38.948;2024-01-06T04:40:08;8.15;;;5.50;;
64832;SDS011;51290;45.060;38.948;2024-01-06T04:42:34;8.77;;;5.97;;
64832;SDS011;51290;45.060;38.948;2024-01-06T04:45:00;10.75;;;5.80;;
64832;SDS011;51290;45.060;38.948;2024-01-06T04:47:26;9.20;;;5.93;;
64832;SDS011;51290;45.060;38.948;2024-01-06T04:49:53;8.50;;;6.20;;
64832;SDS011;51290;45.060;38.948;2024-01-06T04:52:19;9.27;;;5.55;;
64832;SDS011;51290;45.060;38.948;2024-01-06T04:54:44;8.15;;;5.40;;
64832;SDS011;51290;45.060;38.948;2024-01-06T04:57:10;8.80;;;6.20;;
64832;SDS011;51290;45.060;38.948;2024-01-06T04:59:36;10.27;;;6.28;;
64832;SDS011;51290;45.060;38.948;2024-01-06T05:02:02;7.00;;;5.47;;
64832;SDS011;51290;45.060;38.948;2024-01-06T05:04:29;12.73;;;6.50;;
64832;SDS011;51290;45.060;38.948;2024-01-06T05:06:57;9.00;;;5.63;;
64832;SDS011;51290;45.060;38.948;2024-01-06T05:09:23;12.48;;;6.35;;
64832;SDS011;51290;45.060;38.948;2024-01-06T05:11:49;10.23;;;6.78;;
64832;SDS011;51290;45.060;38.948;2024-01-06T05:14:15;9.10;;;5.78;;
64832;SDS011;51290;45.060;38.948;2024-01-06T05:16:41;8.25;;;6.68;;
64832;SDS011;51290;45.060;38.948;2024-01-06T05:19:07;22.65;;;8.10;;
64832;SDS011;51290;45.060;38.948;2024-01-06T05:21:34;11.95;;;7.65;;
64832;SDS011;51290;45.060;38.948;2024-01-06T05:24:00;13.82;;;7.97;;
64832;SDS011;51290;45.060;38.948;2024-01-06T05:26:26;12.45;;;7.57;;
64832;SDS011;51290;45.060;38.948;2024-01-06T05:28:52;10.43;;;7.30;;
64832;SDS011;51290;45.060;38.948;2024-01-06T05:31:18;11.32;;;6.22;;
64832;SDS011;51290;45.060;38.948;2024-01-06T05:33:44;15.00;;;7.05;;
64832;SDS011;51290;45.060;38.948;2024-01-06T05:36:10;8.52;;;6.00;;
64832;SDS011;51290;45.060;38.948;2024-01-06T05:38:36;10.43;;;6.28;;
64832;SDS011;51290;45.060;38.948;2024-01-06T05:41:02;10.25;;;6.93;;
64832;SDS011;51290;45.060;38.948;2024-01-06T05:43:28;18.77;;;6.68;;
64832;SDS011;51290;45.060;38.948;2024-01-06T05:45:54;11.18;;;7.13;;
64832;SDS011;51290;45.060;38.948;2024-01-06T05:48:20;19.95;;;7.43;;
64832;SDS011;51290;45.060;38.948;2024-01-06T05:50:46;9.95;;;6.43;;
64832;SDS011;51290;45.060;38.948;2024-01-06T05:53:12;27.35;;;8.70;;
64832;SDS011;51290;45.060;38.948;2024-01-06T05:55:39;9.73;;;7.40;;
64832;SDS011;51290;45.060;38.948;2024-01-06T05:58:05;12.48;;;8.20;;
64832;SDS011;51290;45.060;38.948;2024-01-06T06:00:31;10.88;;;7.47;;
64832;SDS011;51290;45.060;38.948;2024-01-06T06:02:57;9.88;;;6.75;;
64832;SDS011;51290;45.060;38.948;2024-01-06T06:05:23;10.82;;;6.53;;
64832;SDS011;51290;45.060;38.948;2024-01-06T06:07:49;9.23;;;6.60;;
64832;SDS011;51290;45.060;38.948;2024-01-06T06:10:15;12.38;;;6.75;;
64832;SDS011;51290;45.060;38.948;2024-01-06T06:12:43;14.02;;;7.18;;
64832;SDS011;51290;45.060;38.948;2024-01-06T06:15:10;8.38;;;5.97;;
64832;SDS011;51290;45.060;38.948;2024-01-06T06:17:36;10.32;;;6.13;;
64832;SDS011;51290;45.060;38.948;2024-01-06T06:20:02;16.42;;;6.72;;
64832;SDS011;51290;45.060;38.948;2024-01-06T06:22:28;14.77;;;6.18;;
64832;SDS011;51290;45.060;38.948;2024-01-06T06:24:57;15.77;;;6.45;;
64832;SDS011;51290;45.060;38.948;2024-01-06T06:27:24;9.50;;;5.88;;
64832;SDS011;51290;45.060;38.948;2024-01-06T06:29:51;9.73;;;5.80;;
64832;SDS011;51290;45.060;38.948;2024-01-06T06:32:18;19.67;;;6.13;;
64832;SDS011;51290;45.060;38.948;2024-01-06T06:34:44;9.27;;;5.25;;
64832;SDS011;51290;45.060;38.948;2024-01-06T06:37:10;9.57;;;4.97;;
64832;SDS011;51290;45.060;38.948;2024-01-06T06:39:36;9.25;;;5.38;;
64832;SDS011;51290;45.060;38.948;2024-01-06T06:42:02;8.55;;;5.03;;
64832;SDS011;51290;45.060;38.948;2024-01-06T06:44:28;7.68;;;4.90;;
64832;SDS011;51290;45.060;38.948;2024-01-06T06:46:55;7.57;;;5.18;;
64832;SDS011;51290;45.060;38.948;2024-01-06T06:49:21;8.57;;;5.72;;
64832;SDS011;51290;45.060;38.948;2024-01-06T06:51:47;7.22;;;5.07;;
64832;SDS011;51290;45.060;38.948;2024-01-06T06:54:14;8.15;;;5.10;;
64832;SDS011;51290;45.060;38.948;2024-01-06T06:56:43;9.07;;;5.45;;
64832;SDS011;51290;45.060;38.948;2024-01-06T06:59:09;6.20;;;4.53;;
64832;SDS011;51290;45.060;38.948;2024-01-06T07:01:35;6.80;;;4.78;;
64832;SDS011;51290;45.060;38.948;2024-01-06T07:04:01;7.68;;;5.30;;
64832;SDS011;51290;45.060;38.948;2024-01-06T07:06:28;6.40;;;5.10;;
64832;SDS011;51290;45.060;38.948;2024-01-06T07:08:55;7.47;;;5.35;;
64832;SDS011;51290;45.060;38.948;2024-01-06T07:11:21;7.05;;;5.20;;
64832;SDS011;51290;45.060;38.948;2024-01-06T07:13:47;9.05;;;5.22;;
64832;SDS011;51290;45.060;38.948;2024-01-06T07:16:13;8.25;;;4.78;;
64832;SDS011;51290;45.060;38.948;2024-01-06T07:18:39;7.75;;;5.40;;
64832;SDS011;51290;45.060;38.948;2024-01-06T07:21:05;8.65;;;6.25;;
64832;SDS011;51290;45.060;38.948;2024-01-06T07:23:32;7.53;;;5.00;;
64832;SDS011;51290;45.060;38.948;2024-01-06T07:25:58;7.97;;;4.93;;
64832;SDS011;51290;45.060;38.948;2024-01-06T07:28:24;7.50;;;4.68;;
64832;SDS011;51290;45.060;38.948;2024-01-06T07:30:50;6.90;;;4.10;;
64832;SDS011;51290;45.060;38.948;2024-01-06T07:33:16;10.07;;;5.10;;
64832;SDS011;51290;45.060;38.948;2024-01-06T07:35:42;9.90;;;5.30;;
64832;SDS011;51290;45.060;38.948;2024-01-06T07:38:09;7.72;;;4.32;;
64832;SDS011;51290;45.060;38.948;2024-01-06T07:40:35;9.18;;;5.05;;
64832;SDS011;51290;45.060;38.948;2024-01-06T07:43:02;7.93;;;4.80;;
64832;SDS011;51290;45.060;38.948;2024-01-06T07:45:28;6.25;;;4.65;;
64832;SDS011;51290;45.060;38.948;2024-01-06T07:47:54;5.22;;;3.88;;
64832;SDS011;51290;45.060;38.948;2024-01-06T07:50:20;6.05;;;4.07;;
64832;SDS011;51290;45.060;38.948;2024-01-06T07:52:45;5.55;;;4.10;;
64832;SDS011;51290;45.060;38.948;2024-01-06T07:55:11;4.28;;;3.58;;
64832;SDS011;51290;45.060;38.948;2024-01-06T07:57:37;6.50;;;4.05;;
64832;SDS011;51290;45.060;38.948;2024-01-06T08:00:03;5.55;;;4.13;;
64832;SDS011;51290;45.060;38.948;2024-01-06T08:02:37;6.78;;;3.70;;
64832;SDS011;51290;45.060;38.948;2024-01-06T08:05:03;6.75;;;4.03;;
64832;SDS011;51290;45.060;38.948;2024-01-06T08:07:29;7.63;;;4.65;;
64832;SDS011;51290;45.060;38.948;2024-01-06T08:09:55;5.07;;;3.70;;
64832;SDS011;51290;45.060;38.948;2024-01-06T08:12:21;5.93;;;3.80;;
64832;SDS011;51290;45.060;38.948;2024-01-06T08:14:47;7.78;;;4.40;;
64832;SDS011;51290;45.060;38.948;2024-01-06T08:17:13;4.93;;;3.70;;
64832;SDS011;51290;45.060;38.948;2024-01-06T08:19:39;5.18;;;4.07;;
64832;SDS011;51290;45.060;38.948;2024-01-06T08:22:07;7.03;;;4.15;;
64832;SDS011;51290;45.060;38.948;2024-01-06T08:24:33;5.15;;;4.15;;
64832;SDS011;51290;45.060;38.948;2024-01-06T08:26:59;5.95;;;4.55;;
64832;SDS011;51290;45.060;38.948;2024-01-06T08:29:25;8.10;;;3.92;;
64832;SDS011;51290;45.060;38.948;2024-01-06T08:31:51;7.10;;;4.25;;
64832;SDS011;51290;45.060;38.948;2024-01-06T08:34:17;5.75;;;3.97;;
64832;SDS011;51290;45.060;38.948;2024-01-06T08:36:44;7.57;;;4.03;;
64832;SDS011;51290;45.060;38.948;2024-01-06T08:39:10;5.30;;;3.85;;
64832;SDS011;51290;45.060;38.948;2024-01-06T08:41:36;4.95;;;3.72;;
64832;SDS011;51290;45.060;38.948;2024-01-06T08:44:02;7.15;;;4.45;;
64832;SDS011;51290;45.060;38.948;2024-01-06T08:46:29;6.55;;;4.60;;
64832;SDS011;51290;45.060;38.948;2024-01-06T08:48:56;5.38;;;3.97;;
64832;SDS011;51290;45.060;38.948;2024-01-06T08:51:22;4.93;;;3.85;;
64832;SDS011;51290;45.060;38.948;2024-01-06T08:53:49;5.25;;;4.22;;
64832;SDS011;51290;45.060;38.948;2024-01-06T08:56:15;6.07;;;4.10;;
64832;SDS011;51290;45.060;38.948;2024-01-06T08:58:43;5.55;;;4.03;;
64832;SDS011;51290;45.060;38.948;2024-01-06T09:01:09;9.13;;;4.32;;
64832;SDS011;51290;45.060;38.948;2024-01-06T09:03:36;7.45;;;4.55;;
64832;SDS011;51290;45.060;38.948;2024-01-06T09:06:02;5.15;;;4.00;;
64832;SDS011;51290;45.060;38.948;2024-01-06T09:08:28;6.30;;;3.85;;
64832;SDS011;51290;45.060;38.948;2024-01-06T09:10:54;8.55;;;6.35;;
64832;SDS011;51290;45.060;38.948;2024-01-06T09:13:22;5.93;;;4.30;;
64832;SDS011;51290;45.060;38.948;2024-01-06T09:15:49;4.90;;;3.92;;
64832;SDS011;51290;45.060;38.948;2024-01-06T09:18:18;5.88;;;3.50;;
64832;SDS011;51290;45.060;38.948;2024-01-06T09:20:46;6.70;;;3.92;;
64832;SDS011;51290;45.060;38.948;2024-01-06T09:23:15;4.30;;;3.45;;
64832;SDS011;51290;45.060;38.948;2024-01-06T09:25:41;5.55;;;3.58;;
64832;SDS011;51290;45.060;38.948;2024-01-06T09:28:07;6.03;;;3.83;;
64832;SDS011;51290;45.060;38.948;2024-01-06T09:30:33;4.93;;;3.58;;
64832;SDS011;51290;45.060;38.948;2024-01-06T09:33:00;5.03;;;3.67;;
64832;SDS011;51290;45.060;38.948;2024-01-06T09:35:25;9.70;;;4.85;;
64832;SDS011;51290;45.060;38.948;2024-01-06T09:37:51;5.90;;;4.20;;
64832;SDS011;51290;45.060;38.948;2024-01-06T09:40:20;6.55;;;4.57;;
64832;SDS011;51290;45.060;38.948;2024-01-06T09:42:48;7.65;;;4.88;;
64832;SDS011;51290;45.060;38.948;2024-01-06T09:45:15;4.53;;;3.63;;
64832;SDS011;51290;45.060;38.948;2024-01-06T09:47:41;8.10;;;4.68;;
64832;SDS011;51290;45.060;38.948;2024-01-06T09:50:10;7.68;;;3.92;;
64832;SDS011;51290;45.060;38.948;2024-01-06T09:52:40;5.70;;;4.10;;
64832;SDS011;51290;45.060;38.948;2024-01-06T09:55:11;14.10;;;4.78;;
64832;SDS011;51290;45.060;38.948;2024-01-06T09:57:37;4.45;;;3.50;;
64832;SDS011;51290;45.060;38.948;2024-01-06T10:00:04;6.68;;;4.43;;
64832;SDS011;51290;45.060;38.948;2024-01-06T10:02:37;7.03;;;4.65;;
64832;SDS011;51290;45.060;38.948;2024-01-06T10:05:03;6.43;;;4.22;;
64832;SDS011;51290;45.060;38.948;2024-01-06T10:07:29;8.38;;;4.57;;
64832;SDS011;51290;45.060;38.948;2024-01-06T10:09:55;6.22;;;3.95;;
64832;SDS011;51290;45.060;38.948;2024-01-06T10:12:24;7.63;;;4.10;;
64832;SDS011;51290;45.060;38.948;2024-01-06T10:14:51;7.20;;;4.00;;
64832;SDS011;51290;45.060;38.948;2024-01-06T10:17:17;10.90;;;4.75;;
64832;SDS011;51290;45.060;38.948;2024-01-06T10:19:45;7.93;;;4.20;;
64832;SDS011;51290;45.060;38.948;2024-01-06T10:22:13;7.18;;;4.75;;
64832;SDS011;51290;45.060;38.948;2024-01-06T10:24:39;7.55;;;4.47;;
64832;SDS011;51290;45.060;38.948;2024-01-06T10:27:05;8.07;;;4.55;;
64832;SDS011;51290;45.060;38.948;2024-01-06T10:29:31;8.77;;;4.35;;
64832;SDS011;51290;45.060;38.948;2024-01-06T10:31:58;7.70;;;4.43;;
64832;SDS011;51290;45.060;38.948;2024-01-06T10:34:24;6.57;;;3.95;;
64832;SDS011;51290;45.060;38.948;2024-01-06T10:36:50;5.07;;;3.80;;
64832;SDS011;51290;45.060;38.948;2024-01-06T10:39:20;4.68;;;3.65;;
64832;SDS011;51290;45.060;38.948;2024-01-06T10:41:48;7.18;;;3.65;;
64832;SDS011;51290;45.060;38.948;2024-01-06T10:44:15;6.55;;;3.22;;
64832;SDS011;51290;45.060;38.948;2024-01-06T10:46:41;6.97;;;3.67;;
64832;SDS011;51290;45.060;38.948;2024-01-06T10:49:11;3.83;;;3.30;;
64832;SDS011;51290;45.060;38.948;2024-01-06T10:51:38;5.20;;;3.38;;
64832;SDS011;51290;45.060;38.948;2024-01-06T10:54:04;5.78;;;3.08;;
64832;SDS011;51290;45.060;38.948;2024-01-06T10:56:36;5.38;;;3.25;;
64832;SDS011;51290;45.060;38.948;2024-01-06T10:59:06;6.18;;;3.70;;
64832;SDS011;51290;45.060;38.948;2024-01-06T11:01:33;3.97;;;3.20;;
64832;SDS011;51290;45.060;38.948;2024-01-06T11:04:02;4.35;;;3.10;;
64832;SDS011;51290;45.060;38.948;2024-01-06T11:06:29;7.47;;;3.45;;
64832;SDS011;51290;45.060;38.948;2024-01-06T11:08:59;5.22;;;3.55;;
64832;SDS011;51290;45.060;38.948;2024-01-06T11:11:35;6.80;;;3.53;;
64832;SDS011;51290;45.060;38.948;2024-01-06T11:16:49;6.72;;;3.35;;
64832;SDS011;51290;45.060;38.948;2024-01-06T11:24:53;5.82;;;3.70;;
64832;SDS011;51290;45.060;38.948;2024-01-06T11:27:28;4.70;;;3.22;;
64832;SDS011;51290;45.060;38.948;2024-01-06T11:30:00;4.93;;;3.30;;
64832;SDS011;51290;45.060;38.948;2024-01-06T11:32:31;5.70;;;3.72;;
64832;SDS011;51290;45.060;38.948;2024-01-06T11:35:11;5.28;;;3.63;;
64832;SDS011;51290;45.060;38.948;2024-01-06T11:43:01;21.83;;;5.18;;
64832;SDS011;51290;45.060;38.948;2024-01-06T11:45:29;8.40;;;4.03;;
64832;SDS011;51290;45.060;38.948;2024-01-06T11:47:56;6.78;;;4.35;;
64832;SDS011;51290;45.060;38.948;2024-01-06T11:50:32;4.75;;;3.88;;
64832;SDS011;51290;45.060;38.948;2024-01-06T11:52:59;8.93;;;4.28;;
64832;SDS011;51290;45.060;38.948;2024-01-06T11:55:26;5.53;;;3.38;;
64832;SDS011;51290;45.060;38.948;2024-01-06T11:57:57;7.47;;;4.80;;
64832;SDS011;51290;45.060;38.948;2024-01-06T12:00:27;8.45;;;3.38;;
64832;SDS011;51290;45.060;38.948;2024-01-06T12:02:56;5.07;;;3.30;;
64832;SDS011;51290;45.060;38.948;2024-01-06T12:05:23;3.83;;;2.75;;
64832;SDS011;51290;45.060;38.948;2024-01-06T12:08:00;8.80;;;3.80;;
64832;SDS011;51290;45.060;38.948;2024-01-06T12:10:27;7.85;;;4.10;;
64832;SDS011;51290;45.060;38.948;2024-01-06T12:12:58;7.00;;;3.55;;
64832;SDS011;51290;45.060;38.948;2024-01-06T12:15:28;5.00;;;3.20;;
64832;SDS011;51290;45.060;38.948;2024-01-06T12:17:55;5.18;;;3.38;;
64832;SDS011;51290;45.060;38.948;2024-01-06T12:20:23;7.28;;;3.50;;
64832;SDS011;51290;45.060;38.948;2024-01-06T12:22:51;5.32;;;3.50;;
64832;SDS011;51290;45.060;38.948;2024-01-06T12:25:17;7.82;;;3.60;;
64832;SDS011;51290;45.060;38.948;2024-01-06T12:27:44;7.38;;;3.58;;
64832;SDS011;51290;45.060;38.948;2024-01-06T12:30:13;6.65;;;3.47;;
64832;SDS011;51290;45.060;38.948;2024-01-06T12:32:47;5.40;;;3.00;;
64832;SDS011;51290;45.060;38.948;2024-01-06T12:35:20;3.67;;;2.30;;
64832;SDS011;51290;45.060;38.948;2024-01-06T12:37:47;5.47;;;2.80;;
64832;SDS011;51290;45.060;38.948;2024-01-06T12:40:13;5.03;;;2.75;;
64832;SDS011;51290;45.060;38.948;2024-01-06T12:42:42;4.63;;;3.03;;
64832;SDS011;51290;45.060;38.948;2024-01-06T12:45:09;4.85;;;2.92;;
64832;SDS011;51290;45.060;38.948;2024-01-06T12:47:35;4.47;;;2.13;;
64832;SDS011;51290;45.060;38.948;2024-01-06T12:50:02;3.67;;;2.55;;
64832;SDS011;51290;45.060;38.948;2024-01-06T12:52:29;4.35;;;2.80;;
64832;SDS011;51290;45.060;38.948;2024-01-06T12:54:55;7.53;;;2.95;;
64832;SDS011;51290;45.060;38.948;2024-01-06T12:57:21;6.20;;;3.10;;
64832;SDS011;51290;45.060;38.948;2024-01-06T12:59:47;4.22;;;2.67;;
64832;SDS011;51290;45.060;38.948;2024-01-06T13:02:13;5.90;;;2.60;;
64832;SDS011;51290;45.060;38.948;2024-01-06T13:04:39;5.85;;;2.65;;
64832;SDS011;51290;45.060;38.948;2024-01-06T13:07:05;5.63;;;3.05;;
64832;SDS011;51290;45.060;38.948;2024-01-06T13:09:31;7.93;;;2.60;;
64832;SDS011;51290;45.060;38.948;2024-01-06T13:11:58;6.22;;;2.90;;
64832;SDS011;51290;45.060;38.948;2024-01-06T13:14:28;6.40;;;3.35;;
64832;SDS011;51290;45.060;38.948;2024-01-06T13:16:55;6.18;;;3.08;;
64832;SDS011;51290;45.060;38.948;2024-01-06T13:19:21;7.82;;;3.20;;
64832;SDS011;51290;45.060;38.948;2024-01-06T13:21:47;6.00;;;3.42;;
64832;SDS011;51290;45.060;38.948;2024-01-06T13:24:13;4.30;;;3.05;;
64832;SDS011;51290;45.060;38.948;2024-01-06T13:26:39;9.95;;;4.30;;
64832;SDS011;51290;45.060;38.948;2024-01-06T13:29:05;7.57;;;4.00;;
64832;SDS011;51290;45.060;38.948;2024-01-06T13:31:31;5.97;;;4.03;;
64832;SDS011;51290;45.060;38.948;2024-01-06T13:33:58;9.63;;;3.97;;
64832;SDS011;51290;45.060;38.948;2024-01-06T13:36:24;6.38;;;3.75;;
64832;SDS011;51290;45.060;38.948;2024-01-06T13:38:50;11.75;;;3.90;;
64832;SDS011;51290;45.060;38.948;2024-01-06T13:41:16;6.82;;;3.88;;
64832;SDS011;51290;45.060;38.948;2024-01-06T13:43:42;5.93;;;3.22;;
64832;SDS011;51290;45.060;38.948;2024-01-06T13:46:10;3.95;;;2.70;;
64832;SDS011;51290;45.060;38.948;2024-01-06T13:48:39;5.72;;;3.75;;
64832;SDS011;51290;45.060;38.948;2024-01-06T13:51:06;8.90;;;3.88;;
64832;SDS011;51290;45.060;38.948;2024-01-06T13:53:32;8.85;;;2.90;;
64832;SDS011;51290;45.060;38.948;2024-01-06T13:55:58;8.18;;;3.63;;
64832;SDS011;51290;45.060;38.948;2024-01-06T13:58:24;8.40;;;4.00;;
64832;SDS011;51290;45.060;38.948;2024-01-06T14:00:50;6.97;;;4.28;;
64832;SDS011;51290;45.060;38.948;2024-01-06T14:03:16;12.68;;;3.92;;
64832;SDS011;51290;45.060;38.948;2024-01-06T14:05:42;6.22;;;3.38;;
64832;SDS011;51290;45.060;38.948;2024-01-06T14:08:08;5.68;;;3.80;;
64832;SDS011;51290;45.060;38.948;2024-01-06T14:10:34;6.03;;;3.30;;
64832;SDS011;51290;45.060;38.948;2024-01-06T14:13:04;25.98;;;4.65;;
64832;SDS011;51290;45.060;38.948;2024-01-06T14:15:30;9.85;;;5.55;;
64832;SDS011;51290;45.060;38.948;2024-01-06T14:17:58;6.68;;;4.32;;
64832;SDS011;51290;45.060;38.948;2024-01-06T14:20:24;8.55;;;4.90;;
64832;SDS011;51290;45.060;38.948;2024-01-06T14:22:50;9.65;;;4.25;;
64832;SDS011;51290;45.060;38.948;2024-01-06T14:25:16;7.15;;;4.10;;
64832;SDS011;51290;45.060;38.948;2024-01-06T14:27:45;9.00;;;3.85;;
64832;SDS011;51290;45.060;38.948;2024-01-06T14:30:11;7.55;;;4.45;;
64832;SDS011;51290;45.060;38.948;2024-01-06T14:32:37;11.45;;;4.68;;
64832;SDS011;51290;45.060;38.948;2024-01-06T14:35:06;7.40;;;3.33;;
64832;SDS011;51290;45.060;38.948;2024-01-06T14:37:36;8.55;;;3.88;;
64832;SDS011;51290;45.060;38.948;2024-01-06T14:40:03;11.57;;;3.60;;
64832;SDS011;51290;45.060;38.948;2024-01-06T14:42:31;8.20;;;3.60;;
64832;SDS011;51290;45.060;38.948;2024-01-06T14:44:58;7.32;;;3.90;;